sensor_id;sensor_type;location;lat;lon;timestamp;P1;durP1;ratioP1;P2;durP2;ratioP2
58756;SDS011;44527;47.460;19.016;2022-10-17T00:05:02;22.33;;;12.23;;
58756;SDS011;44527;47.460;19.016;2022-10-17T00:08:55;21.92;;;11.75;;
58756;SDS011;44527;47.460;19.016;2022-10-17T00:12:37;23.95;;;10.77;;
58756;SDS011;44527;47.460;19.016;2022-10-17T00:16:10;21.60;;;11.25;;
58756;SDS011;44527;47.460;19.016;2022-10-17T00:19:52;28.85;;;12.48;;
58756;SDS011;44527;47.460;19.016;2022-10-17T00:35:39;22.90;;;10.98;;
58756;SDS011;44527;47.460;19.016;2022-10-17T00:39:52;22.95;;;11.00;;
58756;SDS011;44527;47.460;19.016;2022-10-17T00:48:04;15.40;;;9.38;;
58756;SDS011;44527;47.460;19.016;2022-10-17T00:51:46;20.77;;;10.30;;
58756;SDS011;44527;47.460;19.016;2022-10-17T00:55:59;18.62;;;9.45;;
58756;SDS011;44527;47.460;19.016;2022-10-17T00:59:26;20.95;;;9.65;;
58756;SDS011;44527;47.460;19.016;2022-10-17T01:03:26;17.65;;;9.80;;
58756;SDS011;44527;47.460;19.016;2022-10-17T01:07:31;23.55;;;10.77;;
58756;SDS011;44527;47.460;19.016;2022-10-17T01:15:43;23.25;;;10.48;;
58756;SDS011;44527;47.460;19.016;2022-10-17T01:20:15;21.37;;;10.68;;
58756;SDS011;44527;47.460;19.016;2022-10-17T01:36:23;21.60;;;10.30;;
58756;SDS011;44527;47.460;19.016;2022-10-17T01:40:33;17.08;;;8.85;;
58756;SDS011;44527;47.460;19.016;2022-10-17T01:44:21;25.30;;;10.35;;
58756;SDS011;44527;47.460;19.016;2022-10-17T01:48:19;19.65;;;9.95;;
58756;SDS011;44527;47.460;19.016;2022-10-17T01:52:05;17.10;;;9.30;;
58756;SDS011;44527;47.460;19.016;2022-10-17T01:55:51;18.45;;;10.10;;
58756;SDS011;44527;47.460;19.016;2022-10-17T01:59:38;18.75;;;9.85;;
58756;SDS011;44527;47.460;19.016;2022-10-17T02:03:27;17.60;;;9.60;;
58756;SDS011;44527;47.460;19.016;2022-10-17T02:07:12;19.80;;;9.15;;
58756;SDS011;44527;47.460;19.016;2022-10-17T02:22:37;20.17;;;8.52;;
58756;SDS011;44527;47.460;19.016;2022-10-17T02:26:39;15.63;;;9.43;;
58756;SDS011;44527;47.460;19.016;2022-10-17T02:34:08;19.70;;;8.68;;
58756;SDS011;44527;47.460;19.016;2022-10-17T02:37:41;18.27;;;9.45;;
58756;SDS011;44527;47.460;19.016;2022-10-17T02:41:04;19.80;;;9.40;;
58756;SDS011;44527;47.460;19.016;2022-10-17T02:44:30;22.55;;;9.35;;
58756;SDS011;44527;47.460;19.016;2022-10-17T02:48:11;24.80;;;9.77;;
58756;SDS011;44527;47.460;19.016;2022-10-17T02:56:28;18.85;;;9.52;;
58756;SDS011;44527;47.460;19.016;2022-10-17T03:00:00;15.07;;;9.05;;
58756;SDS011;44527;47.460;19.016;2022-10-17T03:03:40;15.75;;;8.68;;
58756;SDS011;44527;47.460;19.016;2022-10-17T03:07:11;17.45;;;9.13;;
58756;SDS011;44527;47.460;19.016;2022-10-17T03:11:05;19.10;;;9.30;;
58756;SDS011;44527;47.460;19.016;2022-10-17T03:15:00;25.58;;;9.07;;
58756;SDS011;44527;47.460;19.016;2022-10-17T03:18:34;13.88;;;8.65;;
58756;SDS011;44527;47.460;19.016;2022-10-17T03:21:58;18.95;;;8.75;;
58756;SDS011;44527;47.460;19.016;2022-10-17T03:57:26;14.57;;;8.13;;
58756;SDS011;44527;47.460;19.016;2022-10-17T04:01:05;14.10;;;8.85;;
58756;SDS011;44527;47.460;19.016;2022-10-17T04:04:09;22.90;;;9.80;;
58756;SDS011;44527;47.460;19.016;2022-10-17T04:07:12;16.30;;;9.10;;
58756;SDS011;44527;47.460;19.016;2022-10-17T04:10:16;20.50;;;9.75;;
58756;SDS011;44527;47.460;19.016;2022-10-17T04:13:18;15.45;;;8.68;;
58756;SDS011;44527;47.460;19.016;2022-10-17T04:16:21;18.92;;;9.10;;
58756;SDS011;44527;47.460;19.016;2022-10-17T04:19:25;20.10;;;10.00;;
58756;SDS011;44527;47.460;19.016;2022-10-17T04:22:28;15.68;;;9.00;;
58756;SDS011;44527;47.460;19.016;2022-10-17T04:25:31;15.52;;;9.38;;
58756;SDS011;44527;47.460;19.016;2022-10-17T04:28:38;17.62;;;9.98;;
58756;SDS011;44527;47.460;19.016;2022-10-17T04:31:42;17.25;;;8.75;;
58756;SDS011;44527;47.460;19.016;2022-10-17T04:34:48;22.20;;;9.98;;
58756;SDS011;44527;47.460;19.016;2022-10-17T04:37:52;19.95;;;9.93;;
58756;SDS011;44527;47.460;19.016;2022-10-17T04:41:02;16.00;;;9.10;;
58756;SDS011;44527;47.460;19.016;2022-10-17T04:44:06;17.27;;;8.75;;
58756;SDS011;44527;47.460;19.016;2022-10-17T04:47:09;15.85;;;9.40;;
58756;SDS011;44527;47.460;19.016;2022-10-17T04:50:12;18.12;;;8.75;;
58756;SDS011;44527;47.460;19.016;2022-10-17T04:53:15;17.42;;;9.27;;
58756;SDS011;44527;47.460;19.016;2022-10-17T04:56:18;15.40;;;9.15;;
58756;SDS011;44527;47.460;19.016;2022-10-17T04:59:22;15.68;;;9.10;;
58756;SDS011;44527;47.460;19.016;2022-10-17T05:02:26;14.27;;;8.82;;
58756;SDS011;44527;47.460;19.016;2022-10-17T05:05:29;22.85;;;10.77;;
58756;SDS011;44527;47.460;19.016;2022-10-17T05:08:33;22.40;;;10.18;;
58756;SDS011;44527;47.460;19.016;2022-10-17T05:11:36;18.65;;;10.52;;
58756;SDS011;44527;47.460;19.016;2022-10-17T05:14:39;19.67;;;9.77;;
58756;SDS011;44527;47.460;19.016;2022-10-17T05:17:42;20.27;;;9.00;;
58756;SDS011;44527;47.460;19.016;2022-10-17T05:20:45;21.35;;;9.88;;
58756;SDS011;44527;47.460;19.016;2022-10-17T05:23:47;27.25;;;10.30;;
58756;SDS011;44527;47.460;19.016;2022-10-17T05:26:50;21.92;;;10.05;;
58756;SDS011;44527;47.460;19.016;2022-10-17T05:29:56;16.40;;;9.60;;
58756;SDS011;44527;47.460;19.016;2022-10-17T05:33:01;21.95;;;10.63;;
58756;SDS011;44527;47.460;19.016;2022-10-17T05:36:05;16.52;;;9.40;;
58756;SDS011;44527;47.460;19.016;2022-10-17T05:39:10;16.80;;;10.00;;
58756;SDS011;44527;47.460;19.016;2022-10-17T05:42:18;17.27;;;9.65;;
58756;SDS011;44527;47.460;19.016;2022-10-17T05:45:30;19.02;;;10.10;;
58756;SDS011;44527;47.460;19.016;2022-10-17T05:48:39;21.20;;;10.27;;
58756;SDS011;44527;47.460;19.016;2022-10-17T05:51:42;29.30;;;11.57;;
58756;SDS011;44527;47.460;19.016;2022-10-17T05:54:45;20.15;;;10.45;;
58756;SDS011;44527;47.460;19.016;2022-10-17T05:57:48;26.10;;;11.05;;
58756;SDS011;44527;47.460;19.016;2022-10-17T06:00:56;18.67;;;10.50;;
58756;SDS011;44527;47.460;19.016;2022-10-17T06:04:03;25.53;;;11.30;;
58756;SDS011;44527;47.460;19.016;2022-10-17T06:07:07;21.17;;;10.38;;
58756;SDS011;44527;47.460;19.016;2022-10-17T06:10:12;24.00;;;11.43;;
58756;SDS011;44527;47.460;19.016;2022-10-17T06:13:17;27.52;;;11.38;;
58756;SDS011;44527;47.460;19.016;2022-10-17T06:16:21;21.02;;;11.63;;
58756;SDS011;44527;47.460;19.016;2022-10-17T06:19:25;22.95;;;11.30;;
58756;SDS011;44527;47.460;19.016;2022-10-17T06:22:29;27.02;;;11.02;;
58756;SDS011;44527;47.460;19.016;2022-10-17T06:25:34;26.37;;;12.30;;
58756;SDS011;44527;47.460;19.016;2022-10-17T06:28:38;28.42;;;12.07;;
58756;SDS011;44527;47.460;19.016;2022-10-17T06:31:41;35.30;;;12.10;;
58756;SDS011;44527;47.460;19.016;2022-10-17T06:34:47;23.87;;;12.63;;
58756;SDS011;44527;47.460;19.016;2022-10-17T06:37:49;34.00;;;12.82;;
58756;SDS011;44527;47.460;19.016;2022-10-17T06:40:51;26.42;;;13.45;;
58756;SDS011;44527;47.460;19.016;2022-10-17T06:43:55;22.67;;;11.57;;
58756;SDS011;44527;47.460;19.016;2022-10-17T06:46:59;22.85;;;12.07;;
58756;SDS011;44527;47.460;19.016;2022-10-17T06:50:02;26.85;;;12.27;;
58756;SDS011;44527;47.460;19.016;2022-10-17T06:53:16;23.15;;;12.07;;
58756;SDS011;44527;47.460;19.016;2022-10-17T06:56:19;22.15;;;11.95;;
58756;SDS011;44527;47.460;19.016;2022-10-17T06:59:25;34.38;;;11.88;;
58756;SDS011;44527;47.460;19.016;2022-10-17T07:02:27;20.70;;;11.98;;
58756;SDS011;44527;47.460;19.016;2022-10-17T07:05:32;25.90;;;12.50;;
58756;SDS011;44527;47.460;19.016;2022-10-17T07:08:34;19.85;;;11.77;;
58756;SDS011;44527;47.460;19.016;2022-10-17T07:11:37;23.17;;;11.93;;
58756;SDS011;44527;47.460;19.016;2022-10-17T07:14:41;26.15;;;12.77;;
58756;SDS011;44527;47.460;19.016;2022-10-17T07:17:48;27.33;;;12.25;;
58756;SDS011;44527;47.460;19.016;2022-10-17T07:20:53;37.65;;;13.20;;
58756;SDS011;44527;47.460;19.016;2022-10-17T07:23:56;26.80;;;11.10;;
58756;SDS011;44527;47.460;19.016;2022-10-17T07:27:00;27.02;;;11.25;;
58756;SDS011;44527;47.460;19.016;2022-10-17T07:30:03;18.73;;;10.30;;
58756;SDS011;44527;47.460;19.016;2022-10-17T07:33:07;19.33;;;10.45;;
58756;SDS011;44527;47.460;19.016;2022-10-17T07:36:11;19.23;;;11.32;;
58756;SDS011;44527;47.460;19.016;2022-10-17T07:39:13;16.80;;;10.10;;
58756;SDS011;44527;47.460;19.016;2022-10-17T07:42:16;21.50;;;10.25;;
58756;SDS011;44527;47.460;19.016;2022-10-17T07:45:19;21.67;;;10.70;;
58756;SDS011;44527;47.460;19.016;2022-10-17T07:48:22;20.00;;;10.73;;
58756;SDS011;44527;47.460;19.016;2022-10-17T07:51:32;31.15;;;11.25;;
58756;SDS011;44527;47.460;19.016;2022-10-17T07:54:52;20.30;;;10.90;;
58756;SDS011;44527;47.460;19.016;2022-10-17T07:57:59;22.08;;;11.30;;
58756;SDS011;44527;47.460;19.016;2022-10-17T08:01:07;22.17;;;10.80;;
58756;SDS011;44527;47.460;19.016;2022-10-17T08:04:17;21.52;;;10.63;;
58756;SDS011;44527;47.460;19.016;2022-10-17T08:07:20;28.00;;;12.35;;
58756;SDS011;44527;47.460;19.016;2022-10-17T08:10:34;25.50;;;11.23;;
58756;SDS011;44527;47.460;19.016;2022-10-17T08:13:37;22.00;;;11.05;;
58756;SDS011;44527;47.460;19.016;2022-10-17T08:16:40;23.48;;;10.52;;
58756;SDS011;44527;47.460;19.016;2022-10-17T08:19:43;21.92;;;11.32;;
58756;SDS011;44527;47.460;19.016;2022-10-17T08:22:50;20.73;;;10.93;;
58756;SDS011;44527;47.460;19.016;2022-10-17T08:26:00;28.75;;;11.70;;
58756;SDS011;44527;47.460;19.016;2022-10-17T08:29:18;26.48;;;11.43;;
58756;SDS011;44527;47.460;19.016;2022-10-17T08:32:27;23.02;;;11.85;;
58756;SDS011;44527;47.460;19.016;2022-10-17T08:35:52;21.73;;;11.52;;
58756;SDS011;44527;47.460;19.016;2022-10-17T08:38:56;24.77;;;12.25;;
58756;SDS011;44527;47.460;19.016;2022-10-17T08:45:43;20.62;;;10.68;;
58756;SDS011;44527;47.460;19.016;2022-10-17T08:48:56;20.20;;;11.20;;
58756;SDS011;44527;47.460;19.016;2022-10-17T08:52:23;29.87;;;12.55;;
58756;SDS011;44527;47.460;19.016;2022-10-17T08:55:41;27.95;;;11.00;;
58756;SDS011;44527;47.460;19.016;2022-10-17T08:58:48;25.35;;;11.32;;
58756;SDS011;44527;47.460;19.016;2022-10-17T09:02:16;19.42;;;10.80;;
58756;SDS011;44527;47.460;19.016;2022-10-17T09:06:20;33.58;;;10.57;;
58756;SDS011;44527;47.460;19.016;2022-10-17T09:09:50;31.23;;;10.95;;
58756;SDS011;44527;47.460;19.016;2022-10-17T09:16:53;26.87;;;9.80;;
58756;SDS011;44527;47.460;19.016;2022-10-17T09:23:44;26.48;;;10.35;;
58756;SDS011;44527;47.460;19.016;2022-10-17T09:27:08;17.13;;;8.20;;
58756;SDS011;44527;47.460;19.016;2022-10-17T09:30:22;17.45;;;8.50;;
58756;SDS011;44527;47.460;19.016;2022-10-17T09:33:46;17.30;;;7.95;;
58756;SDS011;44527;47.460;19.016;2022-10-17T09:36:56;24.45;;;7.45;;
58756;SDS011;44527;47.460;19.016;2022-10-17T09:40:03;14.35;;;7.50;;
58756;SDS011;44527;47.460;19.016;2022-10-17T09:43:10;18.42;;;8.20;;
58756;SDS011;44527;47.460;19.016;2022-10-17T09:46:36;17.73;;;8.07;;
58756;SDS011;44527;47.460;19.016;2022-10-17T09:49:40;21.08;;;8.18;;
58756;SDS011;44527;47.460;19.016;2022-10-17T09:52:45;16.48;;;8.38;;
58756;SDS011;44527;47.460;19.016;2022-10-17T09:55:50;18.75;;;8.25;;
58756;SDS011;44527;47.460;19.016;2022-10-17T09:58:57;15.67;;;7.80;;
58756;SDS011;44527;47.460;19.016;2022-10-17T10:02:34;18.83;;;7.10;;
58756;SDS011;44527;47.460;19.016;2022-10-17T10:05:30;14.10;;;6.68;;
58756;SDS011;44527;47.460;19.016;2022-10-17T10:08:37;15.95;;;7.50;;
58756;SDS011;44527;47.460;19.016;2022-10-17T10:11:55;13.02;;;7.10;;
58756;SDS011;44527;47.460;19.016;2022-10-17T10:14:59;14.15;;;6.15;;
58756;SDS011;44527;47.460;19.016;2022-10-17T10:18:02;14.00;;;6.53;;
58756;SDS011;44527;47.460;19.016;2022-10-17T10:21:13;15.85;;;6.40;;
58756;SDS011;44527;47.460;19.016;2022-10-17T10:24:18;12.40;;;6.60;;
58756;SDS011;44527;47.460;19.016;2022-10-17T10:27:21;12.00;;;5.57;;
58756;SDS011;44527;47.460;19.016;2022-10-17T10:30:24;15.40;;;5.37;;
58756;SDS011;44527;47.460;19.016;2022-10-17T10:33:31;13.30;;;5.53;;
58756;SDS011;44527;47.460;19.016;2022-10-17T10:37:02;10.05;;;4.95;;
58756;SDS011;44527;47.460;19.016;2022-10-17T10:40:20;8.95;;;4.85;;
58756;SDS011;44527;47.460;19.016;2022-10-17T10:46:49;12.23;;;4.80;;
58756;SDS011;44527;47.460;19.016;2022-10-17T10:50:20;10.73;;;4.82;;
58756;SDS011;44527;47.460;19.016;2022-10-17T10:56:44;13.18;;;5.40;;
58756;SDS011;44527;47.460;19.016;2022-10-17T10:59:55;19.25;;;5.22;;
58756;SDS011;44527;47.460;19.016;2022-10-17T11:03:25;8.93;;;4.32;;
58756;SDS011;44527;47.460;19.016;2022-10-17T11:06:36;13.77;;;4.72;;
58756;SDS011;44527;47.460;19.016;2022-10-17T11:09:47;13.23;;;5.00;;
58756;SDS011;44527;47.460;19.016;2022-10-17T11:16:38;10.10;;;4.50;;
58756;SDS011;44527;47.460;19.016;2022-10-17T11:20:08;11.45;;;4.20;;
58756;SDS011;44527;47.460;19.016;2022-10-17T11:26:26;12.20;;;3.97;;
58756;SDS011;44527;47.460;19.016;2022-10-17T11:29:33;9.85;;;4.18;;
58756;SDS011;44527;47.460;19.016;2022-10-17T11:32:45;9.88;;;4.10;;
58756;SDS011;44527;47.460;19.016;2022-10-17T11:35:52;8.45;;;3.72;;
58756;SDS011;44527;47.460;19.016;2022-10-17T11:39:01;5.65;;;3.60;;
58756;SDS011;44527;47.460;19.016;2022-10-17T11:42:18;11.55;;;3.80;;
58756;SDS011;44527;47.460;19.016;2022-10-17T11:45:30;7.28;;;3.83;;
58756;SDS011;44527;47.460;19.016;2022-10-17T11:48:42;12.48;;;3.85;;
58756;SDS011;44527;47.460;19.016;2022-10-17T11:51:55;10.88;;;4.07;;
58756;SDS011;44527;47.460;19.016;2022-10-17T12:01:46;11.20;;;4.10;;
58756;SDS011;44527;47.460;19.016;2022-10-17T12:05:02;8.40;;;4.05;;
58756;SDS011;44527;47.460;19.016;2022-10-17T12:14:43;6.72;;;3.35;;
58756;SDS011;44527;47.460;19.016;2022-10-17T12:17:55;6.90;;;3.65;;
58756;SDS011;44527;47.460;19.016;2022-10-17T12:24:33;9.95;;;3.90;;
58756;SDS011;44527;47.460;19.016;2022-10-17T12:27:42;15.77;;;5.65;;
58756;SDS011;44527;47.460;19.016;2022-10-17T12:30:54;12.63;;;4.10;;
58756;SDS011;44527;47.460;19.016;2022-10-17T12:33:59;7.70;;;3.90;;
58756;SDS011;44527;47.460;19.016;2022-10-17T12:37:07;14.75;;;4.10;;
58756;SDS011;44527;47.460;19.016;2022-10-17T12:43:47;9.85;;;3.47;;
58756;SDS011;44527;47.460;19.016;2022-10-17T12:46:55;6.15;;;3.40;;
58756;SDS011;44527;47.460;19.016;2022-10-17T12:49:58;11.63;;;3.60;;
58756;SDS011;44527;47.460;19.016;2022-10-17T12:53:02;7.37;;;3.22;;
58756;SDS011;44527;47.460;19.016;2022-10-17T12:56:07;9.50;;;3.70;;
58756;SDS011;44527;47.460;19.016;2022-10-17T12:59:20;8.40;;;3.50;;
58756;SDS011;44527;47.460;19.016;2022-10-17T13:02:26;6.65;;;3.40;;
58756;SDS011;44527;47.460;19.016;2022-10-17T13:05:34;10.82;;;3.47;;
58756;SDS011;44527;47.460;19.016;2022-10-17T13:08:38;8.98;;;3.60;;
58756;SDS011;44527;47.460;19.016;2022-10-17T13:11:45;9.98;;;3.95;;
58756;SDS011;44527;47.460;19.016;2022-10-17T13:14:52;10.55;;;3.87;;
58756;SDS011;44527;47.460;19.016;2022-10-17T13:17:56;6.82;;;3.15;;
58756;SDS011;44527;47.460;19.016;2022-10-17T13:21:02;11.10;;;3.40;;
58756;SDS011;44527;47.460;19.016;2022-10-17T13:27:41;7.03;;;3.67;;
58756;SDS011;44527;47.460;19.016;2022-10-17T13:30:45;11.50;;;3.80;;
58756;SDS011;44527;47.460;19.016;2022-10-17T13:33:54;6.57;;;3.30;;
58756;SDS011;44527;47.460;19.016;2022-10-17T13:36:59;17.23;;;3.58;;
58756;SDS011;44527;47.460;19.016;2022-10-17T13:40:04;7.28;;;3.72;;
58756;SDS011;44527;47.460;19.016;2022-10-17T13:43:27;13.70;;;3.85;;
58756;SDS011;44527;47.460;19.016;2022-10-17T13:46:32;10.38;;;3.62;;
58756;SDS011;44527;47.460;19.016;2022-10-17T13:49:40;8.65;;;3.65;;
58756;SDS011;44527;47.460;19.016;2022-10-17T13:52:44;6.35;;;3.35;;
58756;SDS011;44527;47.460;19.016;2022-10-17T13:55:50;13.75;;;3.92;;
58756;SDS011;44527;47.460;19.016;2022-10-17T13:59:23;5.50;;;3.45;;
58756;SDS011;44527;47.460;19.016;2022-10-17T14:02:30;11.18;;;3.42;;
58756;SDS011;44527;47.460;19.016;2022-10-17T14:05:34;10.68;;;3.72;;
58756;SDS011;44527;47.460;19.016;2022-10-17T14:08:36;11.07;;;3.97;;
58756;SDS011;44527;47.460;19.016;2022-10-17T14:11:40;6.47;;;3.83;;
58756;SDS011;44527;47.460;19.016;2022-10-17T14:14:46;13.90;;;3.50;;
58756;SDS011;44527;47.460;19.016;2022-10-17T14:18:26;10.43;;;3.50;;
58756;SDS011;44527;47.460;19.016;2022-10-17T14:21:36;7.07;;;3.80;;
58756;SDS011;44527;47.460;19.016;2022-10-17T14:24:45;11.50;;;3.83;;
58756;SDS011;44527;47.460;19.016;2022-10-17T14:27:53;11.27;;;3.90;;
58756;SDS011;44527;47.460;19.016;2022-10-17T14:34:28;9.73;;;3.92;;
58756;SDS011;44527;47.460;19.016;2022-10-17T14:37:44;9.07;;;4.37;;
58756;SDS011;44527;47.460;19.016;2022-10-17T14:40:49;9.98;;;4.40;;
58756;SDS011;44527;47.460;19.016;2022-10-17T14:43:54;11.65;;;3.65;;
58756;SDS011;44527;47.460;19.016;2022-10-17T14:47:03;8.73;;;4.43;;
58756;SDS011;44527;47.460;19.016;2022-10-17T14:50:28;9.30;;;3.95;;
58756;SDS011;44527;47.460;19.016;2022-10-17T14:53:33;12.20;;;3.83;;
58756;SDS011;44527;47.460;19.016;2022-10-17T14:56:39;9.50;;;3.83;;
58756;SDS011;44527;47.460;19.016;2022-10-17T15:02:57;16.60;;;7.82;;
58756;SDS011;44527;47.460;19.016;2022-10-17T15:06:08;19.48;;;5.82;;
58756;SDS011;44527;47.460;19.016;2022-10-17T15:09:20;19.33;;;5.10;;
58756;SDS011;44527;47.460;19.016;2022-10-17T15:12:27;30.65;;;5.12;;
58756;SDS011;44527;47.460;19.016;2022-10-17T15:15:33;16.00;;;6.12;;
58756;SDS011;44527;47.460;19.016;2022-10-17T15:18:37;18.05;;;4.53;;
58756;SDS011;44527;47.460;19.016;2022-10-17T15:21:42;16.60;;;5.40;;
58756;SDS011;44527;47.460;19.016;2022-10-17T15:24:48;18.08;;;4.68;;
58756;SDS011;44527;47.460;19.016;2022-10-17T15:27:53;13.75;;;6.62;;
58756;SDS011;44527;47.460;19.016;2022-10-17T15:30:59;15.27;;;4.68;;
58756;SDS011;44527;47.460;19.016;2022-10-17T15:34:02;12.55;;;4.55;;
58756;SDS011;44527;47.460;19.016;2022-10-17T15:37:05;14.02;;;4.57;;
58756;SDS011;44527;47.460;19.016;2022-10-17T15:40:20;15.35;;;4.53;;
58756;SDS011;44527;47.460;19.016;2022-10-17T15:43:25;11.77;;;4.93;;
58756;SDS011;44527;47.460;19.016;2022-10-17T15:46:31;9.80;;;4.90;;
58756;SDS011;44527;47.460;19.016;2022-10-17T15:49:35;20.45;;;6.75;;
58756;SDS011;44527;47.460;19.016;2022-10-17T15:52:38;8.48;;;5.12;;
58756;SDS011;44527;47.460;19.016;2022-10-17T15:55:42;15.77;;;5.37;;
58756;SDS011;44527;47.460;19.016;2022-10-17T15:58:51;17.65;;;6.40;;
58756;SDS011;44527;47.460;19.016;2022-10-17T16:01:56;18.55;;;6.65;;
58756;SDS011;44527;47.460;19.016;2022-10-17T16:04:59;24.67;;;7.43;;
58756;SDS011;44527;47.460;19.016;2022-10-17T16:08:03;29.15;;;8.88;;
58756;SDS011;44527;47.460;19.016;2022-10-17T16:11:09;26.65;;;10.23;;
58756;SDS011;44527;47.460;19.016;2022-10-17T16:14:18;26.60;;;10.88;;
58756;SDS011;44527;47.460;19.016;2022-10-17T16:17:21;27.02;;;11.35;;
58756;SDS011;44527;47.460;19.016;2022-10-17T16:20:24;27.08;;;10.07;;
58756;SDS011;44527;47.460;19.016;2022-10-17T16:23:27;38.47;;;10.63;;
58756;SDS011;44527;47.460;19.016;2022-10-17T16:26:32;36.63;;;10.20;;
58756;SDS011;44527;47.460;19.016;2022-10-17T16:29:35;28.77;;;10.45;;
58756;SDS011;44527;47.460;19.016;2022-10-17T16:32:38;23.58;;;10.38;;
58756;SDS011;44527;47.460;19.016;2022-10-17T16:35:42;25.20;;;9.27;;
58756;SDS011;44527;47.460;19.016;2022-10-17T16:38:47;13.95;;;6.37;;
58756;SDS011;44527;47.460;19.016;2022-10-17T16:41:51;18.15;;;7.15;;
58756;SDS011;44527;47.460;19.016;2022-10-17T16:44:58;23.20;;;10.43;;
58756;SDS011;44527;47.460;19.016;2022-10-17T16:48:01;18.40;;;7.85;;
58756;SDS011;44527;47.460;19.016;2022-10-17T16:51:04;15.65;;;7.53;;
58756;SDS011;44527;47.460;19.016;2022-10-17T16:54:08;17.67;;;7.40;;
58756;SDS011;44527;47.460;19.016;2022-10-17T16:57:11;20.60;;;8.05;;
58756;SDS011;44527;47.460;19.016;2022-10-17T17:00:14;21.70;;;8.07;;
58756;SDS011;44527;47.460;19.016;2022-10-17T17:03:18;25.50;;;8.65;;
58756;SDS011;44527;47.460;19.016;2022-10-17T17:06:23;15.35;;;7.47;;
58756;SDS011;44527;47.460;19.016;2022-10-17T17:09:27;23.67;;;8.07;;
58756;SDS011;44527;47.460;19.016;2022-10-17T17:12:33;15.27;;;7.53;;
58756;SDS011;44527;47.460;19.016;2022-10-17T17:15:37;16.92;;;7.68;;
58756;SDS011;44527;47.460;19.016;2022-10-17T17:18:40;13.43;;;7.32;;
58756;SDS011;44527;47.460;19.016;2022-10-17T17:21:43;17.70;;;9.13;;
58756;SDS011;44527;47.460;19.016;2022-10-17T17:24:51;18.10;;;8.93;;
58756;SDS011;44527;47.460;19.016;2022-10-17T17:27:54;19.08;;;8.65;;
58756;SDS011;44527;47.460;19.016;2022-10-17T17:30:57;24.35;;;7.50;;
58756;SDS011;44527;47.460;19.016;2022-10-17T17:34:01;15.20;;;8.35;;
58756;SDS011;44527;47.460;19.016;2022-10-17T17:37:06;16.02;;;8.02;;
58756;SDS011;44527;47.460;19.016;2022-10-17T17:40:09;19.48;;;8.57;;
58756;SDS011;44527;47.460;19.016;2022-10-17T17:43:12;17.95;;;8.68;;
58756;SDS011;44527;47.460;19.016;2022-10-17T17:46:16;21.98;;;8.63;;
58756;SDS011;44527;47.460;19.016;2022-10-17T17:49:20;23.40;;;8.73;;
58756;SDS011;44527;47.460;19.016;2022-10-17T17:52:23;18.70;;;9.32;;
58756;SDS011;44527;47.460;19.016;2022-10-17T17:55:26;20.42;;;8.88;;
58756;SDS011;44527;47.460;19.016;2022-10-17T17:58:28;19.90;;;8.80;;
58756;SDS011;44527;47.460;19.016;2022-10-17T18:01:32;23.65;;;9.23;;
58756;SDS011;44527;47.460;19.016;2022-10-17T18:04:39;20.15;;;8.90;;
58756;SDS011;44527;47.460;19.016;2022-10-17T18:07:42;18.40;;;8.88;;
58756;SDS011;44527;47.460;19.016;2022-10-17T18:10:46;18.30;;;8.50;;
58756;SDS011;44527;47.460;19.016;2022-10-17T18:13:54;20.80;;;8.98;;
58756;SDS011;44527;47.460;19.016;2022-10-17T18:16:58;24.33;;;9.63;;
58756;SDS011;44527;47.460;19.016;2022-10-17T18:20:00;17.55;;;9.10;;
58756;SDS011;44527;47.460;19.016;2022-10-17T18:23:05;16.60;;;8.40;;
58756;SDS011;44527;47.460;19.016;2022-10-17T18:26:07;23.27;;;9.25;;
58756;SDS011;44527;47.460;19.016;2022-10-17T18:29:11;21.83;;;9.20;;
58756;SDS011;44527;47.460;19.016;2022-10-17T18:32:14;18.52;;;8.98;;
58756;SDS011;44527;47.460;19.016;2022-10-17T18:35:17;20.65;;;9.82;;
58756;SDS011;44527;47.460;19.016;2022-10-17T18:38:20;24.73;;;8.80;;
58756;SDS011;44527;47.460;19.016;2022-10-17T18:41:23;23.10;;;9.32;;
58756;SDS011;44527;47.460;19.016;2022-10-17T18:44:27;17.25;;;8.65;;
58756;SDS011;44527;47.460;19.016;2022-10-17T18:47:31;31.23;;;8.98;;
58756;SDS011;44527;47.460;19.016;2022-10-17T18:50:37;22.27;;;9.00;;
58756;SDS011;44527;47.460;19.016;2022-10-17T18:53:41;21.20;;;8.38;;
58756;SDS011;44527;47.460;19.016;2022-10-17T18:56:45;17.67;;;8.40;;
58756;SDS011;44527;47.460;19.016;2022-10-17T18:59:50;18.25;;;8.25;;
58756;SDS011;44527;47.460;19.016;2022-10-17T19:02:53;23.62;;;8.20;;
58756;SDS011;44527;47.460;19.016;2022-10-17T19:06:00;18.73;;;8.95;;
58756;SDS011;44527;47.460;19.016;2022-10-17T19:09:05;21.35;;;9.30;;
58756;SDS011;44527;47.460;19.016;2022-10-17T19:12:09;19.50;;;8.48;;
58756;SDS011;44527;47.460;19.016;2022-10-17T19:15:12;23.02;;;8.38;;
58756;SDS011;44527;47.460;19.016;2022-10-17T19:18:15;28.70;;;8.80;;
58756;SDS011;44527;47.460;19.016;2022-10-17T19:21:18;20.48;;;9.05;;
58756;SDS011;44527;47.460;19.016;2022-10-17T19:24:24;33.13;;;9.50;;
58756;SDS011;44527;47.460;19.016;2022-10-17T19:27:29;21.85;;;8.57;;
58756;SDS011;44527;47.460;19.016;2022-10-17T19:30:32;19.60;;;8.68;;
58756;SDS011;44527;47.460;19.016;2022-10-17T19:33:35;14.07;;;8.68;;
58756;SDS011;44527;47.460;19.016;2022-10-17T19:36:39;27.90;;;8.73;;
58756;SDS011;44527;47.460;19.016;2022-10-17T19:39:42;18.30;;;8.55;;
58756;SDS011;44527;47.460;19.016;2022-10-17T19:42:45;17.50;;;9.73;;
58756;SDS011;44527;47.460;19.016;2022-10-17T19:45:59;24.27;;;10.02;;
58756;SDS011;44527;47.460;19.016;2022-10-17T19:49:03;14.40;;;8.88;;
58756;SDS011;44527;47.460;19.016;2022-10-17T19:52:07;15.57;;;9.68;;
58756;SDS011;44527;47.460;19.016;2022-10-17T19:55:10;18.95;;;9.65;;
58756;SDS011;44527;47.460;19.016;2022-10-17T19:58:13;20.83;;;10.43;;
58756;SDS011;44527;47.460;19.016;2022-10-17T20:01:18;22.23;;;10.85;;
58756;SDS011;44527;47.460;19.016;2022-10-17T20:04:22;21.10;;;9.82;;
58756;SDS011;44527;47.460;19.016;2022-10-17T20:07:25;24.67;;;10.77;;
58756;SDS011;44527;47.460;19.016;2022-10-17T20:10:28;23.80;;;10.15;;
58756;SDS011;44527;47.460;19.016;2022-10-17T20:13:31;27.05;;;11.27;;
58756;SDS011;44527;47.460;19.016;2022-10-17T20:16:36;25.98;;;11.70;;
58756;SDS011;44527;47.460;19.016;2022-10-17T20:19:39;23.38;;;11.48;;
58756;SDS011;44527;47.460;19.016;2022-10-17T20:22:42;19.90;;;11.65;;
58756;SDS011;44527;47.460;19.016;2022-10-17T20:25:45;32.38;;;12.57;;
58756;SDS011;44527;47.460;19.016;2022-10-17T20:28:48;30.42;;;12.43;;
58756;SDS011;44527;47.460;19.016;2022-10-17T20:31:51;28.35;;;12.10;;
58756;SDS011;44527;47.460;19.016;2022-10-17T20:34:54;30.02;;;12.27;;
58756;SDS011;44527;47.460;19.016;2022-10-17T20:37:56;29.55;;;12.20;;
58756;SDS011;44527;47.460;19.016;2022-10-17T20:41:00;24.60;;;11.90;;
58756;SDS011;44527;47.460;19.016;2022-10-17T20:44:04;26.50;;;12.10;;
58756;SDS011;44527;47.460;19.016;2022-10-17T20:47:08;25.42;;;12.27;;
58756;SDS011;44527;47.460;19.016;2022-10-17T20:50:22;39.25;;;12.88;;
58756;SDS011;44527;47.460;19.016;2022-10-17T20:53:25;28.50;;;13.10;;
58756;SDS011;44527;47.460;19.016;2022-10-17T20:56:43;28.10;;;12.85;;
58756;SDS011;44527;47.460;19.016;2022-10-17T20:59:46;34.63;;;12.37;;